Time;durP1;ratioP1;P1;durP2;ratioP2;P2;SDS_P1;SDS_P2;PMS_P1;PMS_P2;Temp;Humidity;BMP_temperature;BMP_pressure;BME280_temperature;BME280_humidity;BME280_pressure;Samples;Min_cycle;Max_cycle;Signal;HPM_P1;HPM_P2
2022/08/13 00:01:38;;;;;;;8.95;8.05;;;;;;;22.56;59.40;99005.19;5011360;28;20060;-73
2022/08/13 00:04:08;;;;;;;11.00;9.05;;;;;;;22.71;58.73;99000.09;5011408;28;20033;-73
2022/08/13 00:09:06;;;;;;;11.85;9.30;;;;;;;22.62;59.22;98991.25;5011606;28;20038;-73
2022/08/13 00:14:22;;;;;;;11.07;8.57;;;;;;;22.32;60.49;99002.22;5011656;28;20041;-73
2022/08/13 00:16:52;;;;;;;9.85;8.48;;;;;;;22.55;59.83;98989.31;5011079;28;20030;-72
2022/08/13 00:19:18;;;;;;;8.93;8.02;;;;;;;22.58;59.51;98979.91;5011260;28;20056;-73
2022/08/13 00:21:44;;;;;;;10.13;8.70;;;;;;;22.65;59.79;98982.66;5011228;28;20054;-73
2022/08/13 00:24:09;;;;;;;9.25;8.15;;;;;;;22.53;58.91;98986.88;5009913;28;20461;-72
2022/08/13 00:26:35;;;;;;;10.45;7.32;;;;;;;22.65;58.71;98979.00;5010092;28;20026;-73
2022/08/13 00:29:01;;;;;;;10.50;8.88;;;;;;;22.51;59.80;98980.03;5011214;28;20025;-72
2022/08/13 00:31:28;;;;;;;10.40;9.27;;;;;;;22.15;61.62;98981.28;5011192;28;20029;-72
2022/08/13 00:33:58;;;;;;;10.07;8.85;;;;;;;22.10;60.45;98988.25;5011075;28;20459;-72
2022/08/13 00:36:24;;;;;;;10.90;6.82;;;;;;;22.22;59.00;98978.34;5009507;28;20045;-72
2022/08/13 00:38:53;;;;;;;7.03;6.40;;;;;;;22.38;57.87;98991.16;4993375;28;20022;-72
2022/08/13 00:41:37;;;;;;;10.88;6.40;;;;;;;22.49;57.50;98982.47;5011107;28;20045;-72
2022/08/13 00:44:04;;;;;;;7.32;6.63;;;;;;;22.53;57.13;98972.63;4993347;28;20026;-72
2022/08/13 00:46:31;;;;;;;7.35;6.00;;;;;;;22.58;57.22;98977.06;5010953;28;20021;-72
2022/08/13 00:48:57;;;;;;;7.45;6.63;;;;;;;22.48;57.68;98970.28;5010761;28;20029;-73
2022/08/13 00:51:26;;;;;;;6.78;6.15;;;;;;;22.35;58.12;98969.22;5014570;28;20033;-73
2022/08/13 00:53:54;;;;;;;7.35;6.60;;;;;;;22.41;57.79;98968.31;5014560;28;20025;-72
2022/08/13 00:56:22;;;;;;;6.57;5.97;;;;;;;22.40;58.12;98971.56;5014409;28;20109;-73
2022/08/13 00:58:49;;;;;;;6.70;5.65;;;;;;;22.48;57.75;98967.44;5013155;28;20032;-72
2022/08/13 01:01:14;;;;;;;13.15;7.00;;;;;;;22.66;57.15;98977.75;4996319;28;20033;-73
2022/08/13 01:03:41;;;;;;;8.50;6.63;;;;;;;22.63;57.12;98975.75;5013842;28;20022;-73
2022/08/13 01:06:07;;;;;;;8.60;6.85;;;;;;;22.54;57.31;98977.09;5014457;28;20037;-73
2022/08/13 01:08:38;;;;;;;6.10;5.60;;;;;;;22.60;57.38;98973.78;5014299;28;20048;-72
2022/08/13 01:11:07;;;;;;;6.80;6.20;;;;;;;22.50;57.49;98975.53;4996623;28;20022;-72
2022/08/13 01:13:34;;;;;;;7.53;6.77;;;;;;;22.23;58.04;98970.59;5014104;28;20590;-73
2022/08/13 01:16:03;;;;;;;7.32;6.35;;;;;;;22.28;57.70;98970.13;5014182;28;20026;-73
2022/08/13 01:18:29;;;;;;;7.30;6.45;;;;;;;22.40;57.34;98968.72;4996337;28;20065;-73
2022/08/13 01:21:08;;;;;;;8.35;6.45;;;;;;;22.29;57.76;98981.06;5014113;28;20037;-73
2022/08/13 01:23:34;;;;;;;7.07;6.38;;;;;;;22.39;57.22;98967.13;5013924;28;20053;-72
2022/08/13 01:26:01;;;;;;;6.82;6.13;;;;;;;22.37;56.72;98969.59;4996281;28;20518;-73
2022/08/13 01:28:28;;;;;;;6.90;6.20;;;;;;;22.27;57.18;98980.69;5013932;28;20076;-73
2022/08/13 01:30:56;;;;;;;6.90;6.13;;;;;;;22.26;57.53;98970.53;5013981;28;20025;-72
2022/08/13 01:33:23;;;;;;;7.13;6.43;;;;;;;21.99;58.87;98967.63;5013782;28;20097;-72
2022/08/13 01:35:50;;;;;;;8.45;6.32;;;;;;;21.94;59.21;98970.97;5012993;28;20014;-73
2022/08/13 01:38:19;;;;;;;9.35;6.60;;;;;;;22.10;58.47;98971.16;5013130;28;20057;-72
2022/08/13 01:40:47;;;;;;;7.50;6.80;;;;;;;22.08;58.02;98956.53;5012456;28;20057;-72
2022/08/13 01:43:13;;;;;;;7.15;6.45;;;;;;;22.13;57.90;98956.06;5013633;28;20176;-72
2022/08/13 01:45:42;;;;;;;10.68;6.30;;;;;;;22.28;57.65;98962.38;5013615;28;20455;-72
2022/08/13 01:50:53;;;;;;;8.05;6.93;;;;;;;22.09;58.08;98961.00;4983074;28;20038;-72
2022/08/13 01:53:19;;;;;;;7.45;5.75;;;;;;;22.18;57.54;98951.94;5013352;28;20036;-73
2022/08/13 01:55:52;;;;;;;7.05;6.35;;;;;;;22.12;57.28;98950.81;5013415;28;20029;-72
2022/08/13 01:58:29;;;;;;;11.82;5.90;;;;;;;22.00;57.48;98946.47;4995660;28;20431;-72
2022/08/13 02:01:01;;;;;;;16.35;6.80;;;;;;;22.04;57.74;98963.50;5013306;28;20477;-72
2022/08/13 02:03:27;;;;;;;7.22;6.22;;;;;;;21.99;57.38;98974.16;4995555;28;20121;-73
2022/08/13 02:05:55;;;;;;;7.20;6.57;;;;;;;21.91;57.48;98964.06;5013254;28;20408;-72
2022/08/13 02:08:23;;;;;;;8.18;6.82;;;;;;;21.77;58.09;98961.41;4995543;28;20028;-72
2022/08/13 02:10:52;;;;;;;6.25;5.65;;;;;;;21.73;58.06;98962.25;5013072;28;20055;-72
2022/08/13 02:13:28;;;;;;;7.95;6.13;;;;;;;21.62;58.04;98953.00;5012087;28;20109;-72
2022/08/13 02:15:53;;;;;;;7.03;6.32;;;;;;;21.81;57.65;98956.47;5012925;28;20040;-72
2022/08/13 02:18:22;;;;;;;7.13;6.03;;;;;;;21.81;57.55;98945.06;5012902;28;20029;-72
2022/08/13 02:20:51;;;;;;;10.18;5.53;;;;;;;21.74;57.25;98957.34;4995318;28;20026;-72
2022/08/13 02:23:22;;;;;;;8.48;6.60;;;;;;;21.74;57.29;98954.50;5012765;28;20045;-72
2022/08/13 02:25:50;;;;;;;7.13;6.43;;;;;;;21.78;57.38;98951.63;5012859;28;20446;-72
2022/08/13 02:28:18;;;;;;;6.90;6.03;;;;;;;21.72;57.75;98959.81;5012622;28;20034;-72
2022/08/13 02:30:45;;;;;;;9.50;6.82;;;;;;;21.66;58.44;98956.63;4995131;28;20113;-72
2022/08/13 02:33:11;;;;;;;11.00;6.97;;;;;;;21.68;58.59;98964.75;4995002;28;20509;-72
2022/08/13 02:35:37;;;;;;;9.18;6.70;;;;;;;21.74;57.68;98952.47;5012548;28;20048;-73
2022/08/13 02:38:04;;;;;;;6.47;5.88;;;;;;;21.78;57.73;98963.84;5011256;28;20117;-73
2022/08/13 02:43:13;;;;;;;6.47;5.78;;;;;;;21.80;57.70;98961.38;5012851;28;20404;-72
2022/08/13 02:45:39;;;;;;;8.55;6.25;;;;;;;21.94;57.54;98968.91;5011610;28;20036;-72
2022/08/13 02:48:05;;;;;;;8.60;6.20;;;;;;;21.88;57.81;98967.78;4994786;28;20040;-73
2022/08/13 02:50:33;;;;;;;7.13;5.93;;;;;;;22.04;57.47;98966.34;5012325;28;20040;-73
2022/08/13 02:52:59;;;;;;;7.53;6.43;;;;;;;22.17;57.42;98973.09;5012407;28;20112;-73
2022/08/13 02:55:29;;;;;;;8.80;6.30;;;;;;;22.19;57.39;98973.47;5012302;28;20653;-72
2022/08/13 02:57:54;;;;;;;8.10;6.95;;;;;;;22.25;57.51;98968.13;5012361;28;20112;-73
2022/08/13 03:00:20;;;;;;;8.32;6.07;;;;;;;22.13;56.87;98973.13;4994568;28;20176;-73
2022/08/13 03:02:46;;;;;;;13.15;6.20;;;;;;;22.23;57.26;98973.44;5012198;28;20492;-72
2022/08/13 03:05:15;;;;;;;9.82;6.38;;;;;;;22.13;56.74;98972.34;5012060;28;20026;-72
2022/08/13 03:07:44;;;;;;;9.40;5.70;;;;;;;22.05;57.32;98987.91;5012179;28;20049;-72
2022/08/13 03:10:11;;;;;;;9.55;6.43;;;;;;;21.92;57.61;98981.97;4994401;28;20026;-72
2022/08/13 03:12:42;;;;;;;9.52;7.20;;;;;;;22.01;57.88;98979.41;5011570;28;20038;-72
2022/08/13 03:15:13;;;;;;;6.93;5.95;;;;;;;21.80;57.65;98977.63;5011912;28;20026;-72
2022/08/13 03:17:39;;;;;;;9.30;6.35;;;;;;;21.62;58.15;98972.91;5010619;28;20522;-73
2022/08/13 03:20:15;;;;;;;7.28;6.57;;;;;;;21.59;58.20;98966.03;5011827;28;20127;-73
2022/08/13 03:22:58;;;;;;;10.77;6.28;;;;;;;21.66;58.80;98978.53;4992407;28;20090;-72
2022/08/13 03:25:26;;;;;;;6.72;6.03;;;;;;;21.77;58.25;98984.16;4994115;28;20030;-72
2022/08/13 03:27:53;;;;;;;11.00;6.85;;;;;;;21.59;58.84;98973.75;5011805;28;20036;-72
2022/08/13 03:30:23;;;;;;;14.82;7.20;;;;;;;21.24;60.16;98972.91;5010331;28;20038;-73
2022/08/13 03:32:50;;;;;;;;;;;;;;;21.61;59.62;98979.84;5012123;28;20095;-72
2022/08/13 03:35:19;;;;;;;16.17;7.53;;;;;;;21.83;59.01;98988.97;5011213;28;19921;-72
2022/08/13 03:37:55;;;;;;;13.50;7.10;;;;;;;21.84;59.11;98992.59;5011083;28;20420;-72
2022/08/13 03:41:00;;;;;;;15.93;7.60;;;;;;;21.82;59.14;98995.06;5011691;28;20493;-73
2022/08/13 03:43:12;;;;;;;10.63;7.53;;;;;;;21.69;60.42;98998.47;5011513;28;20042;-72
2022/08/13 03:45:38;;;;;;;30.63;9.07;;;;;;;21.70;60.69;99002.91;5011566;28;20030;-74
2022/08/13 03:48:04;;;;;;;9.73;8.60;;;;;;;21.48;62.60;99015.72;5011559;28;20025;-73
2022/08/13 03:50:29;;;;;;;10.95;8.77;;;;;;;21.40;63.10;99015.78;5011411;28;20030;-73
2022/08/13 03:53:03;;;;;;;14.40;9.23;;;;;;;21.51;63.54;99010.00;5011593;28;20143;-74
2022/08/13 03:55:30;;;;;;;24.90;10.00;;;;;;;21.60;63.13;99001.78;5011638;28;20456;-74
2022/08/13 03:57:57;;;;;;;15.75;9.38;;;;;;;21.64;63.32;99015.97;5011578;28;20034;-72
2022/08/13 04:00:27;;;;;;;13.45;8.88;;;;;;;21.58;62.49;99011.97;4989689;28;20026;-73
2022/08/13 04:02:52;;;;;;;15.68;8.38;;;;;;;21.52;62.91;99007.97;4990687;28;20036;-73
2022/08/13 04:05:18;;;;;;;16.88;9.18;;;;;;;21.10;64.77;99008.72;4990505;28;20128;-73
2022/08/13 04:07:43;;;;;;;14.48;9.43;;;;;;;21.39;63.63;99017.03;4974406;28;20038;-74
2022/08/13 04:10:11;;;;;;;12.40;7.97;;;;;;;21.36;64.15;99017.06;4974309;28;20472;-75
2022/08/13 04:12:38;;;;;;;12.75;8.43;;;;;;;21.02;64.21;99016.50;4991415;28;20026;-73
2022/08/13 04:15:06;;;;;;;9.32;8.25;;;;;;;21.12;63.81;99014.81;4991593;28;20559;-73
2022/08/13 04:17:33;;;;;;;28.38;9.50;;;;;;;21.23;63.40;99002.53;4991663;28;20030;-74
2022/08/13 04:19:59;;;;;;;47.80;11.13;;;;;;;21.36;63.01;98988.63;4990416;28;20069;-73
2022/08/13 04:22:27;;;;;;;22.70;8.68;;;;;;;21.65;62.29;99006.22;4991797;28;20029;-74
2022/08/13 04:24:52;;;;;;;25.40;13.50;;;;;;;21.55;61.82;98995.75;4976802;28;20129;-73
2022/08/13 04:27:18;;;;;;;23.17;10.10;;;;;;;21.44;62.43;98995.84;4978091;28;20014;-74
2022/08/13 04:29:44;;;;;;;14.25;8.18;;;;;;;21.32;61.92;99003.69;4977953;28;20026;-74
2022/08/13 04:32:09;;;;;;;21.02;7.40;;;;;;;21.23;62.44;99008.22;4977946;28;20029;-73
2022/08/13 04:34:34;;;;;;;13.20;7.55;;;;;;;20.88;64.49;98996.72;4995392;28;20026;-73
2022/08/13 04:37:01;;;;;;;18.30;10.63;;;;;;;20.62;67.04;98990.38;4995069;28;20074;-74
2022/08/13 04:39:27;;;;;;;14.23;10.45;;;;;;;20.65;68.07;98997.28;4995079;28;20081;-74
2022/08/13 04:41:53;;;;;;;11.90;10.70;;;;;;;20.54;68.62;98985.94;4994364;28;20062;-73
2022/08/13 04:44:19;;;;;;;13.35;11.20;;;;;;;20.42;69.59;98987.25;4976023;28;20500;-74
2022/08/13 04:46:44;;;;;;;13.10;9.63;;;;;;;20.71;68.81;98990.72;4977285;28;20080;-73
2022/08/13 04:49:12;;;;;;;13.18;10.20;;;;;;;20.81;68.18;98983.38;4977446;28;20038;-73
2022/08/13 04:51:38;;;;;;;13.23;11.00;;;;;;;20.85;67.85;98989.81;4977544;28;20030;-73
2022/08/13 04:54:04;;;;;;;28.73;13.38;;;;;;;20.89;67.64;98973.56;4993823;28;20084;-73
2022/08/13 04:56:30;;;;;;;19.17;11.27;;;;;;;20.92;67.48;98977.59;4994910;28;20030;-73
2022/08/13 04:58:56;;;;;;;19.05;12.63;;;;;;;21.11;67.19;98984.75;4994980;28;20042;-73
2022/08/13 05:01:21;;;;;;;16.88;11.25;;;;;;;21.45;66.54;98995.41;4993591;28;20532;-73
2022/08/13 05:03:48;;;;;;;15.55;11.38;;;;;;;21.79;64.92;98995.94;4994940;28;20030;-74
2022/08/13 05:06:19;;;;;;;21.63;10.95;;;;;;;21.76;65.16;98994.72;4994510;28;20038;-74
2022/08/13 05:08:49;;;;;;;18.02;10.90;;;;;;;21.87;64.64;99001.09;4994366;28;20125;-74
2022/08/13 05:11:18;;;;;;;14.38;10.90;;;;;;;22.16;63.91;99006.47;4977228;28;20523;-74
2022/08/13 05:13:45;;;;;;;13.43;9.80;;;;;;;22.35;62.61;99001.34;4994737;28;20023;-73
2022/08/13 05:16:18;;;;;;;14.65;10.45;;;;;;;22.49;63.01;99002.41;4977018;28;20023;-74
2022/08/13 05:18:50;;;;;;;17.50;10.80;;;;;;;22.58;61.78;98991.31;4989827;28;20607;-73
2022/08/13 05:21:16;;;;;;;15.77;10.45;;;;;;;22.67;62.20;98996.47;4996361;28;20034;-74
2022/08/13 05:23:42;;;;;;;18.75;11.27;;;;;;;22.81;62.33;98993.41;5013127;28;20030;-73
2022/08/13 05:26:10;;;;;;;13.93;10.70;;;;;;;22.78;62.05;98997.09;5013992;28;20091;-73
2022/08/13 05:28:36;;;;;;;29.33;11.68;;;;;;;22.84;62.38;98991.72;5014000;28;20109;-73
2022/08/13 05:31:02;;;;;;;17.90;12.95;;;;;;;22.90;62.90;98992.88;5013946;28;20116;-73
2022/08/13 05:33:30;;;;;;;23.20;14.27;;;;;;;22.88;62.47;98986.78;5012673;28;20018;-74
2022/08/13 05:36:01;;;;;;;28.98;15.73;;;;;;;22.76;62.05;98991.03;5013194;28;20121;-73
2022/08/13 05:38:28;;;;;;;31.67;14.55;;;;;;;22.81;62.68;98998.31;4996143;28;20535;-73
2022/08/13 05:40:56;;;;;;;27.98;15.82;;;;;;;22.84;62.23;98980.31;5011312;28;20468;-71
2022/08/13 05:43:27;;;;;;;25.13;14.80;;;;;;;22.84;62.51;98981.16;5013664;28;20447;-73
2022/08/13 05:45:57;;;;;;;25.60;15.25;;;;;;;22.99;61.76;98981.72;4996033;28;20053;-71
2022/08/13 05:48:28;;;;;;;21.85;14.02;;;;;;;23.10;61.40;98972.97;5013663;28;20029;-72
2022/08/13 05:50:58;;;;;;;20.15;14.52;;;;;;;23.31;60.93;98982.44;5013587;28;20029;-71
2022/08/13 05:53:24;;;;;;;24.35;15.45;;;;;;;23.48;60.01;98971.13;4995896;28;20034;-71
2022/08/13 05:55:51;;;;;;;22.15;14.57;;;;;;;23.53;59.01;98984.91;4994831;28;20130;-71
2022/08/13 05:58:17;;;;;;;22.80;16.02;;;;;;;23.42;58.65;98979.41;5012081;28;20083;-72
2022/08/13 06:03:29;;;;;;;29.95;16.52;;;;;;;23.75;57.43;98973.91;5010798;28;20049;-71
2022/08/13 06:05:56;;;;;;;25.52;13.55;;;;;;;23.82;57.59;98981.50;4991029;28;20022;-72
2022/08/13 06:08:35;;;;;;;24.48;13.25;;;;;;;23.73;54.60;98979.25;4991992;28;20030;-73
2022/08/13 06:11:04;;;;;;;23.52;13.40;;;;;;;23.71;53.67;98987.41;5006543;28;20503;-73
2022/08/13 06:13:30;;;;;;;27.13;14.05;;;;;;;23.88;54.64;98976.88;4994877;28;20040;-73
2022/08/13 06:16:00;;;;;;;18.45;10.82;;;;;;;24.08;53.43;98985.50;5012678;28;20031;-72
2022/08/13 06:18:37;;;;;;;17.25;8.25;;;;;;;24.09;52.58;98980.59;5013219;28;20061;-72
2022/08/13 06:21:08;;;;;;;21.42;8.10;;;;;;;24.03;51.13;98962.34;5012978;28;20036;-72
2022/08/13 06:23:36;;;;;;;11.65;8.40;;;;;;;24.19;51.28;98968.13;5012854;28;20029;-73
2022/08/13 06:26:04;;;;;;;27.75;10.55;;;;;;;24.31;50.14;98974.41;4995220;28;20137;-72
2022/08/13 06:28:31;;;;;;;12.68;8.05;;;;;;;24.43;48.58;98979.47;4995163;28;20022;-71
2022/08/13 06:31:00;;;;;;;18.25;9.82;;;;;;;24.56;49.14;98973.06;5012837;28;20045;-73
2022/08/13 06:33:30;;;;;;;13.47;9.43;;;;;;;24.77;49.24;98966.88;4994063;28;20120;-73
2022/08/13 06:35:57;;;;;;;12.80;8.52;;;;;;;24.96;48.14;98967.22;5009581;28;20831;-73
2022/08/13 06:38:27;;;;;;;8.82;7.32;;;;;;;24.98;47.75;98966.78;4994772;28;20491;-74
2022/08/13 06:40:54;;;;;;;12.50;9.30;;;;;;;25.08;47.32;98963.66;5012663;28;20029;-73
2022/08/13 06:43:21;;;;;;;10.25;8.05;;;;;;;24.95;48.16;98962.75;4994451;28;20030;-73
2022/08/13 06:45:47;;;;;;;10.20;7.50;;;;;;;25.09;47.44;98958.75;5012004;28;20042;-73
2022/08/13 06:48:14;;;;;;;14.35;8.05;;;;;;;25.30;47.95;98951.66;5011519;28;20029;-73
2022/08/13 06:50:39;;;;;;;11.60;8.07;;;;;;;25.35;47.29;98954.00;5012466;28;20423;-74
2022/08/13 06:53:07;;;;;;;9.68;8.00;;;;;;;25.09;47.75;98950.16;4994756;28;20029;-73
2022/08/13 06:55:36;;;;;;;13.00;8.30;;;;;;;25.15;48.03;98945.50;5012394;28;20057;-73
2022/08/13 06:58:25;;;;;;;13.18;7.90;;;;;;;25.08;47.90;98960.00;4994691;28;20036;-73
2022/08/13 07:00:53;;;;;;;20.60;9.40;;;;;;;25.21;46.57;98954.34;5012314;28;20460;-73
2022/08/13 07:03:19;;;;;;;13.15;10.15;;;;;;;25.45;47.40;98952.09;4994549;28;20412;-73
2022/08/13 07:05:46;;;;;;;10.77;9.10;;;;;;;25.53;47.29;98958.44;5012302;28;20053;-73
2022/08/13 07:08:12;;;;;;;11.95;8.35;;;;;;;25.54;47.02;98960.06;5010993;28;20524;-73
2022/08/13 07:10:51;;;;;;;16.17;9.90;;;;;;;25.70;47.33;98949.81;4992542;28;20040;-74
2022/08/13 07:13:19;;;;;;;9.60;8.25;;;;;;;25.74;45.88;98942.72;5010772;28;20084;-74
2022/08/13 07:15:46;;;;;;;10.73;8.23;;;;;;;25.79;45.63;98950.78;4992347;28;20022;-73
2022/08/13 07:18:11;;;;;;;11.35;8.60;;;;;;;25.88;46.00;98950.09;5010019;28;20025;-74
2022/08/13 07:20:37;;;;;;;15.40;8.27;;;;;;;26.05;45.18;98947.16;5010098;28;20076;-74
2022/08/13 07:23:03;;;;;;;14.85;8.80;;;;;;;26.12;45.44;98938.38;5010493;28;20022;-73
2022/08/13 07:25:30;;;;;;;9.60;8.20;;;;;;;26.31;45.13;98941.53;4994274;28;20039;-73
2022/08/13 07:27:57;;;;;;;9.25;8.32;;;;;;;26.22;43.95;98950.78;5010304;28;20030;-73
2022/08/13 07:30:23;;;;;;;11.20;9.32;;;;;;;26.02;44.69;98943.16;5011788;28;20057;-73
2022/08/13 07:32:50;;;;;;;11.40;8.57;;;;;;;26.33;45.70;98950.47;4993995;28;20072;-73
2022/08/13 07:35:16;;;;;;;9.65;8.65;;;;;;;26.53;45.62;98952.31;5011832;28;20033;-73
2022/08/13 07:37:41;;;;;;;15.18;8.25;;;;;;;26.52;43.94;98945.78;5011333;28;20048;-73
2022/08/13 07:40:08;;;;;;;8.80;7.95;;;;;;;26.58;44.64;98952.53;5011610;28;20033;-73
2022/08/13 07:42:41;;;;;;;15.55;8.55;;;;;;;26.71;45.32;98949.69;5011575;28;20053;-72
2022/08/13 07:45:09;;;;;;;26.40;9.32;;;;;;;26.53;45.25;98947.41;5011565;28;20036;-73
2022/08/13 07:47:37;;;;;;;14.00;8.85;;;;;;;26.42;45.07;98946.94;5011539;28;20018;-74
2022/08/13 07:50:10;;;;;;;15.50;7.85;;;;;;;26.82;44.38;98945.69;5011484;28;20556;-73
2022/08/13 07:52:37;;;;;;;11.30;8.07;;;;;;;27.03;43.93;98939.25;5011446;28;20081;-73
2022/08/13 07:55:03;;;;;;;11.77;8.45;;;;;;;26.93;43.68;98939.59;4993630;28;20058;-73
2022/08/13 07:57:31;;;;;;;9.20;8.25;;;;;;;27.01;43.46;98936.03;5012343;28;20090;-73
2022/08/13 07:59:56;;;;;;;9.13;8.27;;;;;;;27.04;43.01;98938.00;5000131;28;20176;-73
2022/08/13 08:02:26;;;;;;;13.27;7.03;;;;;;;26.98;41.01;98928.34;5017753;28;20112;-73
2022/08/13 08:04:57;;;;;;;11.60;8.43;;;;;;;27.05;42.39;98931.00;5017826;28;20485;-73
2022/08/13 08:07:25;;;;;;;8.90;8.00;;;;;;;27.15;41.71;98931.06;5017866;28;20065;-73
2022/08/13 08:09:52;;;;;;;15.90;9.30;;;;;;;27.15;43.13;98929.00;5000148;28;20513;-72
2022/08/13 08:12:33;;;;;;;10.60;9.40;;;;;;;27.27;44.66;98920.81;5017814;28;20021;-73
2022/08/13 08:15:00;;;;;;;25.15;9.05;;;;;;;27.42;44.50;98924.78;5017674;28;20041;-73
2022/08/13 08:17:27;;;;;;;11.02;9.05;;;;;;;27.37;43.58;98913.91;5017836;28;20026;-73
2022/08/13 08:19:53;;;;;;;12.05;10.00;;;;;;;27.31;43.79;98918.63;4999960;28;20018;-73
2022/08/13 08:22:21;;;;;;;19.13;9.30;;;;;;;27.77;43.54;98909.63;5017675;28;20053;-73
2022/08/13 08:24:49;;;;;;;10.48;8.25;;;;;;;27.89;41.71;98905.06;4999930;28;20025;-73
2022/08/13 08:27:16;;;;;;;11.57;8.60;;;;;;;28.12;41.25;98912.41;4999982;28;20032;-73
2022/08/13 08:29:46;;;;;;;10.27;8.63;;;;;;;28.23;42.12;98911.19;5017732;28;20029;-73
2022/08/13 08:32:14;;;;;;;10.40;8.38;;;;;;;28.37;40.90;98902.03;5000051;28;20072;-73
2022/08/13 08:34:45;;;;;;;10.23;8.00;;;;;;;28.39;41.99;98904.41;4999838;28;20034;-74
2022/08/13 08:42:35;;;;;;;14.55;10.18;;;;;;;28.61;41.60;98903.56;5017375;28;20087;-73
2022/08/13 08:42:49;;;;;;;9.68;8.32;;;;;;;28.42;41.27;98894.88;5017900;28;20026;-73
2022/08/13 08:45:18;;;;;;;11.02;9.43;;;;;;;28.50;42.33;98884.66;5017493;28;20455;-73
2022/08/13 08:47:45;;;;;;;10.70;9.70;;;;;;;28.66;40.37;98877.84;4999875;28;20030;-73
2022/08/13 08:50:11;;;;;;;9.63;8.73;;;;;;;28.62;40.35;98874.31;5017339;28;20087;-73
2022/08/13 08:55:24;;;;;;;13.90;10.77;;;;;;;28.78;41.45;98863.81;5017725;28;20049;-74
2022/08/13 08:57:51;;;;;;;12.05;9.90;;;;;;;28.90;41.45;98862.09;5017407;28;20030;-73
2022/08/13 09:00:19;;;;;;;12.95;11.52;;;;;;;29.02;41.68;98863.25;4999699;28;20022;-75
2022/08/13 09:02:48;;;;;;;11.15;10.05;;;;;;;28.99;40.85;98862.94;4999603;28;20393;-73
2022/08/13 09:05:16;;;;;;;16.92;11.18;;;;;;;28.86;41.78;98853.63;4999449;28;20033;-73
2022/08/13 09:07:46;;;;;;;14.23;11.23;;;;;;;28.92;40.92;98860.34;5017310;28;20448;-73
2022/08/13 09:10:12;;;;;;;;;;;;;;;28.85;41.21;98852.81;4997303;28;20036;-72
2022/08/13 09:12:40;;;;;;;11.20;9.95;;;;;;;28.47;41.09;98847.41;4996747;28;20436;-73
2022/08/13 09:15:06;;;;;;;15.57;10.57;;;;;;;28.49;41.23;98847.78;5013905;28;20057;-73
2022/08/13 09:17:33;;;;;;;20.42;10.98;;;;;;;28.75;43.16;98842.53;5014064;28;20412;-74
2022/08/13 09:19:58;;;;;;;12.80;11.40;;;;;;;29.05;42.09;98840.06;5014058;28;20022;-73
2022/08/13 09:22:24;;;;;;;22.77;12.68;;;;;;;29.18;40.75;98831.28;5013954;28;20104;-74
2022/08/13 09:24:52;;;;;;;14.57;10.63;;;;;;;29.23;40.37;98830.66;4991517;28;20109;-73
2022/08/13 09:27:18;;;;;;;17.23;11.05;;;;;;;29.33;40.65;98830.66;4994399;28;20488;-73
2022/08/13 09:29:45;;;;;;;17.67;12.05;;;;;;;28.81;41.78;98822.56;4976612;28;20026;-75
2022/08/13 09:32:14;;;;;;;12.52;11.18;;;;;;;28.97;41.69;98815.75;4994246;28;20026;-75
2022/08/13 09:34:43;;;;;;;17.10;12.45;;;;;;;29.07;40.17;98811.59;4992907;28;20489;-75
2022/08/13 09:37:09;;;;;;;20.75;11.15;;;;;;;29.21;40.43;98815.13;4992580;28;20088;-74
2022/08/13 09:39:39;;;;;;;17.33;11.15;;;;;;;29.53;40.93;98819.44;4992819;28;20030;-74
2022/08/13 09:42:12;;;;;;;12.48;10.30;;;;;;;29.80;39.54;98814.91;4992895;28;20024;-75
2022/08/13 09:44:41;;;;;;;13.52;11.60;;;;;;;29.87;39.38;98810.09;4993964;28;20038;-74
2022/08/13 09:47:10;;;;;;;17.20;11.80;;;;;;;29.96;38.78;98813.72;4994086;28;20018;-74
2022/08/13 09:49:37;;;;;;;14.20;11.63;;;;;;;30.09;38.60;98807.81;4992607;28;20065;-74
2022/08/13 09:52:02;;;;;;;15.10;11.85;;;;;;;29.41;38.55;98811.75;4994005;28;20100;-74
2022/08/13 09:54:28;;;;;;;14.63;11.55;;;;;;;29.84;38.97;98808.97;4993810;28;20022;-74
2022/08/13 09:56:57;;;;;;;15.27;12.35;;;;;;;29.98;38.01;98804.59;4976307;28;20030;-74
2022/08/13 09:59:22;;;;;;;15.80;11.55;;;;;;;29.70;39.00;98798.94;4993823;28;20023;-74
2022/08/13 10:01:50;;;;;;;19.67;12.18;;;;;;;29.14;38.79;98799.78;4993593;28;20030;-74
2022/08/13 10:04:18;;;;;;;14.45;12.20;;;;;;;29.25;38.84;98799.28;4976219;28;20026;-73
2022/08/13 10:06:47;;;;;;;13.93;11.52;;;;;;;28.96;39.12;98799.78;4993567;28;20046;-74
2022/08/13 10:09:13;;;;;;;12.65;11.10;;;;;;;28.87;39.11;98791.94;4993582;28;20563;-73
2022/08/13 10:11:40;;;;;;;13.52;12.23;;;;;;;29.18;38.07;98799.59;4975934;28;20049;-74
2022/08/13 10:14:06;;;;;;;12.25;11.07;;;;;;;29.35;38.21;98802.16;4992231;28;20041;-73
2022/08/13 10:16:31;;;;;;;14.48;12.55;;;;;;;29.61;37.93;98791.09;4993350;28;20034;-74
2022/08/13 10:18:57;;;;;;;20.27;13.00;;;;;;;30.00;37.53;98792.59;4993414;28;20026;-74
2022/08/13 10:21:23;;;;;;;19.50;11.70;;;;;;;30.23;37.69;98793.97;4992219;28;20018;-73
2022/08/13 10:23:49;;;;;;;15.68;10.95;;;;;;;30.35;36.33;98784.28;4993308;28;20507;-74
2022/08/13 10:26:18;;;;;;;17.38;11.73;;;;;;;30.46;36.87;98783.75;4993193;28;20023;-73
2022/08/13 10:28:44;;;;;;;17.33;11.10;;;;;;;29.52;36.55;98782.50;4992014;28;20050;-74
2022/08/13 10:31:10;;;;;;;17.48;12.07;;;;;;;29.96;37.79;98781.25;4991786;28;20034;-74
2022/08/13 10:33:37;;;;;;;13.20;11.20;;;;;;;30.36;36.96;98765.69;4993289;28;20446;-74
2022/08/13 10:36:05;;;;;;;15.27;11.95;;;;;;;30.71;36.27;98760.69;4975290;28;20030;-74
2022/08/13 10:38:32;;;;;;;14.30;11.65;;;;;;;30.41;36.83;98758.47;4991808;28;20034;-74
2022/08/13 10:41:00;;;;;;;21.83;11.70;;;;;;;30.45;36.91;98759.06;4991660;28;20113;-74
2022/08/13 10:43:27;;;;;;;23.65;12.95;;;;;;;30.61;36.92;98757.06;4992931;28;20026;-73
2022/08/13 10:45:58;;;;;;;18.60;11.80;;;;;;;30.94;36.24;98748.34;4991681;28;20107;-73
2022/08/13 10:48:25;;;;;;;14.40;12.70;;;;;;;31.17;36.11;98747.97;4991580;28;20464;-73
2022/08/13 10:50:52;;;;;;;14.70;11.18;;;;;;;31.14;35.05;98740.31;4992746;28;20066;-73
2022/08/13 10:56:03;;;;;;;15.70;10.88;;;;;;;31.01;35.75;98740.56;4992550;28;20523;-74
2022/08/13 10:58:30;;;;;;;12.93;11.55;;;;;;;31.05;35.30;98741.19;4991528;28;20384;-74
2022/08/13 11:00:56;;;;;;;17.45;11.52;;;;;;;30.79;35.46;98735.97;4992625;28;20065;-74
2022/08/13 11:03:21;;;;;;;12.43;10.73;;;;;;;31.42;35.55;98732.19;4992595;28;20030;-74
2022/08/13 11:05:48;;;;;;;12.52;10.70;;;;;;;31.70;35.03;98740.53;4975014;28;20034;-74
2022/08/13 11:08:14;;;;;;;12.73;10.38;;;;;;;31.65;34.38;98736.25;4992570;28;20065;-74
2022/08/13 11:10:40;;;;;;;13.05;10.88;;;;;;;31.42;33.88;98729.31;4992377;28;20030;-74
2022/08/13 11:13:05;;;;;;;12.23;10.57;;;;;;;31.70;34.94;98737.66;4992604;28;20212;-74
2022/08/13 11:15:31;;;;;;;14.10;10.52;;;;;;;31.99;34.21;98735.25;4991415;28;20346;-74
2022/08/13 11:17:58;;;;;;;12.85;11.43;;;;;;;31.32;33.71;98736.47;4974705;28;20015;-74
2022/08/13 11:20:25;;;;;;;11.82;10.25;;;;;;;31.36;33.03;98722.63;4992364;28;20110;-74
2022/08/13 11:22:55;;;;;;;11.98;10.10;;;;;;;31.11;32.40;98736.31;4990918;28;20030;-74
2022/08/13 11:25:22;;;;;;;15.73;10.73;;;;;;;31.38;32.55;98740.28;4990924;28;20038;-74
2022/08/13 11:27:48;;;;;;;11.57;9.77;;;;;;;31.17;31.63;98728.56;4992087;28;20038;-74
2022/08/13 11:30:16;;;;;;;12.93;10.15;;;;;;;31.08;32.12;98726.56;4992335;28;20125;-74
2022/08/13 11:32:42;;;;;;;14.18;9.82;;;;;;;31.27;32.33;98716.97;4991719;28;20508;-74
2022/08/13 11:35:09;;;;;;;13.93;10.20;;;;;;;31.58;32.38;98712.75;4992078;28;20105;-74
2022/08/13 11:37:35;;;;;;;13.60;9.55;;;;;;;31.56;32.00;98713.28;4990451;28;20046;-74
2022/08/13 11:40:03;;;;;;;18.58;9.88;;;;;;;31.64;31.46;98705.00;4990771;28;20022;-74
2022/08/13 11:42:30;;;;;;;12.85;10.18;;;;;;;31.23;31.53;98706.38;4992057;28;20109;-73
2022/08/13 11:44:55;;;;;;;12.25;8.77;;;;;;;31.25;30.90;98703.00;4990777;28;20030;-75
2022/08/13 11:47:22;;;;;;;9.55;8.52;;;;;;;31.36;29.32;98708.97;4974526;28;20468;-74
2022/08/13 11:49:47;;;;;;;15.68;9.25;;;;;;;31.84;29.51;98694.81;4974408;28;20018;-74